Terminal Aerodrome Forecast
Issued by NWS Medford, OR

Home | Current Version | Previous Version | Text Only | Print | Product List | Glossary On
Versions: 1 2 3 4 5 6 7 8 9 10 11 12 13 14 15 16 17 18 19 20 21 22 23 24 25 26 27 28
440
FTUS46 KMFR 181739
TAFMFR
TAF
KMFR 181739Z 1818/1918 15018G28KT 3SM RA BR BKN035 OVC050
      TEMPO 1818/1822 1SM +RA OVC015
     FM182300 15020G35KT P6SM -SHRA SCT020 OVC040
     FM190200 15010KT 6SM -SHRA BR BKN025 OVC040
     FM190800 VRB03KT 4SM -SHRA BR BKN015 OVC025=

USA.gov is the U.S. government's official web portal to all federal, state and local government web resources and services.